createdAt,value
2018-06-07T00:01:58.820Z,22.40
2018-06-07T00:04:27.605Z,22.33
2018-06-07T00:06:56.516Z,22.32
2018-06-07T00:09:25.317Z,22.18
2018-06-07T00:11:54.284Z,22.17
2018-06-07T00:14:23.497Z,22.18
2018-06-07T00:16:52.480Z,22.14
2018-06-07T00:19:21.315Z,22.09
2018-06-07T00:21:50.182Z,22.06
2018-06-07T00:24:18.933Z,21.89
2018-06-07T00:26:48.152Z,21.82
2018-06-07T00:29:17.076Z,21.66
2018-06-07T00:31:45.919Z,21.56
2018-06-07T00:34:14.757Z,21.70
2018-06-07T00:36:43.559Z,21.67
2018-06-07T00:39:12.695Z,21.69
2018-06-07T00:41:41.598Z,21.65
2018-06-07T00:44:10.877Z,21.74
2018-06-07T00:46:39.708Z,21.74
2018-06-07T00:49:08.707Z,21.75
2018-06-07T00:51:37.800Z,21.68
2018-06-07T00:54:06.569Z,21.75
2018-06-07T00:56:46.599Z,21.81
2018-06-07T00:59:15.324Z,21.83
2018-06-07T01:01:44.145Z,21.83
2018-06-07T01:04:13.025Z,21.81
2018-06-07T01:06:41.868Z,21.88
2018-06-07T01:09:10.847Z,21.88
2018-06-07T01:11:39.749Z,21.91
2018-06-07T01:14:08.571Z,21.90
2018-06-07T01:16:37.683Z,21.85
2018-06-07T01:19:06.472Z,21.83
2018-06-07T01:21:35.446Z,21.76
2018-06-07T01:24:04.251Z,21.73
2018-06-07T01:26:33.220Z,21.74
2018-06-07T01:29:02.015Z,21.77
2018-06-07T01:33:50.538Z,21.86
2018-06-07T01:36:19.588Z,21.92
2018-06-07T01:39:10.263Z,21.90
2018-06-07T01:41:39.048Z,21.71
2018-06-07T01:44:08.021Z,21.79
2018-06-07T01:46:36.704Z,21.81
2018-06-07T01:49:05.593Z,21.83
2018-06-07T01:51:34.307Z,21.92
2018-06-07T01:54:03.231Z,21.94
2018-06-07T01:56:32.211Z,22.04
2018-06-07T01:59:01.317Z,22.10
2018-06-07T02:01:30.096Z,22.16
2018-06-07T02:03:58.960Z,22.27
2018-06-07T02:06:27.724Z,22.26
2018-06-07T02:08:56.907Z,21.98
2018-06-07T02:11:25.812Z,22.00
2018-06-07T02:13:54.599Z,21.61
2018-06-07T02:16:23.433Z,21.61
2018-06-07T02:18:52.278Z,21.80
2018-06-07T02:21:21.113Z,21.79
2018-06-07T02:23:50.127Z,21.83
2018-06-07T02:26:19.056Z,21.86
2018-06-07T02:28:47.992Z,21.85
2018-06-07T02:31:16.776Z,21.80
2018-06-07T02:33:46.016Z,21.77
2018-06-07T02:36:14.936Z,21.76
2018-06-07T02:38:43.908Z,21.78
2018-06-07T02:41:12.842Z,21.85
2018-06-07T02:43:41.899Z,21.62
2018-06-07T02:46:10.877Z,21.66
2018-06-07T02:48:39.626Z,21.68
2018-06-07T02:51:08.480Z,21.51
2018-06-07T02:53:37.343Z,21.38
2018-06-07T02:56:06.144Z,21.30
2018-06-07T02:58:35.175Z,21.33
2018-06-07T03:01:03.930Z,21.09
2018-06-07T03:03:32.836Z,21.10
2018-06-07T03:06:01.532Z,20.96
2018-06-07T03:08:30.302Z,20.88
2018-06-07T03:10:59.472Z,20.93
2018-06-07T03:13:28.197Z,21.12
2018-06-07T03:15:56.974Z,21.20
2018-06-07T03:18:25.780Z,21.25
2018-06-07T03:20:54.705Z,21.37
2018-06-07T03:23:23.788Z,21.44
2018-06-07T03:25:52.648Z,21.48
2018-06-07T03:28:21.548Z,21.56
2018-06-07T03:30:50.380Z,21.46
2018-06-07T03:33:19.424Z,21.50
2018-06-07T03:35:48.388Z,21.50
2018-06-07T03:38:17.312Z,21.47
2018-06-07T03:40:46.092Z,21.25
2018-06-07T03:43:15.069Z,21.40
2018-06-07T03:45:43.759Z,21.47
2018-06-07T03:48:12.572Z,21.46
2018-06-07T03:50:41.333Z,21.30
2018-06-07T03:53:10.024Z,21.47
2018-06-07T03:55:38.949Z,21.51
2018-06-07T03:58:07.904Z,21.64
2018-06-07T04:00:36.771Z,21.76
2018-06-07T04:03:05.493Z,21.85
2018-06-07T04:05:34.279Z,21.96
2018-06-07T04:08:03.093Z,22.05
2018-06-07T04:10:32.064Z,22.11
2018-06-07T04:13:00.903Z,22.18
2018-06-07T04:15:29.937Z,22.16
2018-06-07T04:17:58.721Z,22.28
2018-06-07T04:20:27.855Z,22.23
2018-06-07T04:22:56.715Z,22.37
2018-06-07T04:25:25.748Z,22.28
2018-06-07T04:27:54.760Z,22.16
2018-06-07T04:30:23.719Z,22.40
2018-06-07T04:32:52.564Z,22.48
2018-06-07T04:35:21.391Z,22.62
2018-06-07T04:37:50.241Z,22.72
2018-06-07T04:40:19.356Z,22.73
2018-06-07T04:42:48.209Z,22.84
2018-06-07T04:45:17.216Z,22.89
2018-06-07T04:47:46.128Z,22.99
2018-06-07T04:50:14.945Z,23.07
2018-06-07T04:52:43.929Z,23.12
2018-06-07T04:55:12.756Z,23.22
2018-06-07T04:57:41.707Z,23.28
2018-06-07T05:00:10.952Z,23.38
2018-06-07T05:02:40.049Z,23.54
2018-06-07T05:05:08.816Z,23.41
2018-06-07T05:07:37.660Z,23.51
2018-06-07T05:10:06.657Z,23.61
2018-06-07T05:12:35.649Z,23.63
2018-06-07T05:15:04.864Z,23.81
2018-06-07T05:17:34.060Z,23.97
2018-06-07T05:20:03.078Z,23.77
2018-06-07T05:22:31.854Z,23.79
2018-06-07T05:25:00.860Z,23.72
2018-06-07T05:27:29.865Z,23.80
2018-06-07T05:29:58.744Z,23.69
2018-06-07T05:32:27.815Z,23.83
2018-06-07T05:34:57.082Z,23.93
2018-06-07T05:37:25.986Z,24.08
2018-06-07T05:39:55.221Z,24.11
2018-06-07T05:42:24.215Z,24.26
2018-06-07T05:44:53.273Z,24.25
2018-06-07T05:47:22.482Z,24.50
2018-06-07T05:49:51.572Z,24.57
2018-06-07T05:52:20.850Z,24.74
2018-06-07T05:54:49.756Z,24.85
2018-06-07T05:57:18.785Z,25.11
2018-06-07T05:59:47.700Z,25.20
2018-06-07T06:02:16.640Z,25.05
2018-06-07T06:04:46.401Z,25.21
2018-06-07T06:07:15.136Z,25.58
2018-06-07T06:09:44.654Z,25.88
2018-06-07T06:12:13.860Z,25.88
2018-06-07T06:14:42.740Z,26.11
2018-06-07T06:17:11.795Z,26.38
2018-06-07T06:19:40.653Z,26.71
2018-06-07T06:22:09.611Z,26.70
2018-06-07T06:24:38.420Z,26.73
2018-06-07T06:27:07.491Z,26.73
2018-06-07T06:29:36.871Z,26.75
2018-06-07T06:32:06.599Z,26.96
2018-06-07T06:34:35.379Z,27.25
2018-06-07T06:37:04.209Z,27.26
2018-06-07T06:39:32.964Z,27.27
2018-06-07T06:42:01.858Z,27.59
2018-06-07T06:44:30.648Z,28.03
2018-06-07T06:46:59.642Z,28.02
2018-06-07T06:49:28.636Z,28.07
2018-06-07T06:51:57.620Z,28.30
2018-06-07T06:54:26.424Z,28.66
2018-06-07T06:56:55.416Z,28.92
2018-06-07T06:59:24.328Z,28.66
2018-06-07T07:01:53.296Z,28.20
2018-06-07T07:04:22.454Z,27.89
2018-06-07T07:06:51.401Z,27.88
2018-06-07T07:09:20.733Z,27.88
2018-06-07T07:11:49.867Z,27.43
2018-06-07T07:14:18.667Z,27.05
2018-06-07T07:16:47.455Z,27.08
2018-06-07T07:19:16.164Z,26.44
2018-06-07T07:21:44.984Z,26.48
2018-06-07T07:24:14.319Z,26.58
2018-06-07T07:26:43.116Z,26.63
2018-06-07T07:29:12.032Z,26.74
2018-06-07T07:31:40.919Z,26.65
2018-06-07T07:34:09.944Z,26.15
2018-06-07T07:36:39.267Z,26.19
2018-06-07T07:39:08.779Z,26.05
2018-06-07T07:41:37.623Z,26.23
2018-06-07T07:44:06.645Z,25.96
2018-06-07T07:46:35.545Z,26.26
2018-06-07T07:49:04.400Z,26.26
2018-06-07T07:51:33.152Z,26.57
2018-06-07T07:54:01.938Z,26.42
2018-06-07T07:56:30.764Z,26.92
2018-06-07T07:58:59.607Z,27.40
2018-06-07T08:01:28.596Z,28.16
2018-06-07T08:03:57.388Z,28.77
2018-06-07T08:06:26.181Z,29.31
2018-06-07T08:08:54.996Z,29.66
2018-06-07T08:11:23.856Z,28.78
2018-06-07T08:13:52.932Z,28.52
2018-06-07T08:16:21.636Z,28.52
2018-06-07T08:18:50.629Z,28.78
2018-06-07T08:21:19.407Z,28.87
2018-06-07T08:23:48.204Z,28.93
2018-06-07T08:26:17.320Z,28.65
2018-06-07T08:28:46.206Z,28.01
2018-06-07T08:31:14.987Z,28.16
2018-06-07T08:33:43.801Z,28.41
2018-06-07T08:36:12.661Z,28.43
2018-06-07T08:38:41.627Z,28.31
2018-06-07T08:41:10.544Z,28.69
2018-06-07T08:43:39.452Z,29.71
2018-06-07T08:46:08.752Z,30.75
2018-06-07T08:48:37.532Z,31.40
2018-06-07T08:51:06.448Z,31.66
2018-06-07T08:53:35.220Z,31.76
2018-06-07T08:56:03.885Z,31.55
2018-06-07T08:58:32.707Z,31.36
2018-06-07T09:01:01.576Z,30.97
2018-06-07T09:03:30.444Z,31.11
2018-06-07T09:05:59.199Z,31.02
2018-06-07T09:08:28.064Z,31.04
2018-06-07T09:10:56.950Z,31.37
2018-06-07T09:13:25.788Z,31.33
2018-06-07T09:15:55.231Z,31.38
2018-06-07T09:18:24.315Z,31.03
2018-06-07T09:20:53.305Z,30.97
2018-06-07T09:23:22.119Z,30.49
2018-06-07T09:25:50.887Z,30.10
2018-06-07T09:28:19.704Z,29.64
2018-06-07T09:30:48.616Z,29.91
2018-06-07T09:33:17.477Z,29.51
2018-06-07T09:35:46.468Z,29.56
2018-06-07T09:38:15.233Z,29.35
2018-06-07T09:40:44.238Z,29.36
2018-06-07T09:43:13.036Z,29.64
2018-06-07T09:45:41.806Z,29.45
2018-06-07T09:48:10.624Z,29.56
2018-06-07T09:50:39.594Z,29.59
2018-06-07T09:53:08.524Z,29.40
2018-06-07T09:55:37.376Z,29.44
2018-06-07T09:58:06.282Z,29.58
2018-06-07T10:00:35.179Z,29.97
2018-06-07T10:03:04.048Z,30.00
2018-06-07T10:05:32.991Z,30.12
2018-06-07T10:08:01.829Z,30.13
2018-06-07T10:10:30.505Z,30.08
2018-06-07T10:12:59.430Z,30.23
2018-06-07T10:15:28.388Z,30.08
2018-06-07T10:17:57.200Z,29.90
2018-06-07T10:20:26.019Z,29.72
2018-06-07T10:22:54.755Z,29.98
2018-06-07T10:25:23.568Z,30.01
2018-06-07T10:27:52.532Z,30.23
2018-06-07T10:30:21.633Z,30.40
2018-06-07T10:32:50.880Z,30.35
2018-06-07T10:35:19.715Z,30.74
2018-06-07T10:37:48.623Z,30.92
2018-06-07T10:40:17.408Z,31.76
2018-06-07T10:42:46.336Z,33.75
2018-06-07T10:45:15.179Z,35.89
2018-06-07T10:47:43.865Z,37.90
2018-06-07T10:50:12.605Z,39.51
2018-06-07T10:52:41.955Z,39.05
2018-06-07T10:55:10.905Z,37.65
2018-06-07T10:57:39.839Z,35.93
2018-06-07T11:00:08.628Z,36.61
2018-06-07T11:02:37.480Z,38.17
2018-06-07T11:05:06.418Z,38.61
2018-06-07T11:07:35.396Z,37.75
2018-06-07T11:10:04.206Z,35.65
2018-06-07T11:12:33.383Z,34.97
2018-06-07T11:15:02.250Z,33.73
2018-06-07T11:17:31.167Z,32.85
2018-06-07T11:19:59.992Z,32.63
2018-06-07T11:22:28.948Z,32.33
2018-06-07T11:24:57.945Z,32.01
2018-06-07T11:27:26.756Z,31.60
2018-06-07T11:29:55.620Z,31.88
2018-06-07T11:32:25.005Z,32.16
2018-06-07T11:34:53.828Z,32.56
2018-06-07T11:37:22.698Z,32.86
2018-06-07T11:39:51.628Z,33.71
2018-06-07T11:42:20.552Z,34.04
2018-06-07T11:44:49.828Z,34.25
2018-06-07T11:47:18.788Z,33.87
2018-06-07T11:49:47.470Z,33.69
2018-06-07T11:52:16.359Z,33.11
2018-06-07T11:54:45.089Z,32.64
2018-06-07T11:57:14.217Z,32.40
2018-06-07T11:59:43.124Z,32.33
2018-06-07T12:02:12.164Z,32.58
2018-06-07T12:04:41.012Z,32.81
2018-06-07T12:07:10.096Z,32.28
2018-06-07T12:09:38.971Z,32.40
2018-06-07T12:12:07.883Z,33.70
2018-06-07T12:14:36.773Z,36.31
2018-06-07T12:17:05.715Z,37.39
2018-06-07T12:19:34.461Z,37.36
2018-06-07T12:22:03.340Z,36.72
2018-06-07T12:24:32.125Z,36.12
2018-06-07T12:27:00.953Z,36.14
2018-06-07T12:29:29.736Z,35.40
2018-06-07T12:31:58.763Z,36.16
2018-06-07T12:34:27.765Z,37.64
2018-06-07T12:36:56.658Z,38.38
2018-06-07T12:39:25.525Z,38.16
2018-06-07T12:41:54.515Z,37.04
2018-06-07T12:44:23.479Z,35.63
2018-06-07T12:46:52.305Z,37.27
2018-06-07T12:49:21.145Z,38.87
2018-06-07T12:51:49.931Z,39.44
2018-06-07T12:54:18.747Z,40.78
2018-06-07T12:56:47.708Z,41.99
2018-06-07T12:59:16.620Z,41.16
2018-06-07T13:01:45.494Z,40.63
2018-06-07T13:04:14.387Z,40.76
2018-06-07T13:06:43.270Z,41.17
2018-06-07T13:09:12.060Z,41.45
2018-06-07T13:11:41.309Z,41.44
2018-06-07T13:14:10.092Z,41.27
2018-06-07T13:16:38.933Z,41.26
2018-06-07T13:19:07.860Z,41.22
2018-06-07T13:21:36.671Z,41.28
2018-06-07T13:24:05.991Z,41.30
2018-06-07T13:26:34.812Z,41.76
2018-06-07T13:29:03.596Z,41.50
2018-06-07T13:31:32.504Z,42.03
2018-06-07T13:34:01.592Z,41.83
2018-06-07T13:36:30.861Z,41.59
2018-06-07T13:38:59.666Z,42.23
2018-06-07T13:41:28.681Z,42.05
2018-06-07T13:43:57.580Z,41.97
2018-06-07T13:46:26.542Z,41.54
2018-06-07T13:48:55.817Z,41.12
2018-06-07T13:51:24.737Z,41.03
2018-06-07T13:53:53.644Z,40.68
2018-06-07T13:56:22.744Z,40.92
2018-06-07T13:58:51.500Z,39.52
2018-06-07T14:01:20.745Z,38.38
2018-06-07T14:03:49.600Z,37.41
2018-06-07T14:06:18.376Z,37.79
2018-06-07T14:08:47.100Z,38.56
2018-06-07T14:11:16.056Z,38.90
2018-06-07T14:13:45.376Z,38.69
2018-06-07T14:16:14.003Z,39.07
2018-06-07T14:18:42.938Z,39.12
2018-06-07T14:21:11.764Z,39.45
2018-06-07T14:23:40.726Z,39.73
2018-06-07T14:26:09.973Z,39.62
2018-06-07T14:28:38.757Z,39.52
2018-06-07T14:31:07.504Z,38.59
2018-06-07T14:33:36.364Z,39.04
2018-06-07T14:36:05.168Z,38.81
2018-06-07T14:38:34.099Z,39.12
2018-06-07T14:41:02.801Z,38.62
2018-06-07T14:43:31.652Z,37.29
2018-06-07T14:46:00.455Z,36.76
2018-06-07T14:48:29.212Z,36.47
2018-06-07T14:50:58.130Z,35.91
2018-06-07T14:53:27.315Z,35.76
2018-06-07T14:55:56.104Z,36.15
2018-06-07T14:58:25.011Z,36.47
2018-06-07T15:00:53.882Z,36.53
2018-06-07T15:03:22.712Z,35.80
2018-06-07T15:05:51.555Z,35.15
2018-06-07T15:08:20.540Z,34.77
2018-06-07T15:10:49.380Z,34.57
2018-06-07T15:13:18.129Z,34.15
2018-06-07T15:15:47.087Z,33.81
2018-06-07T15:18:15.813Z,33.24
2018-06-07T15:20:44.738Z,32.84
2018-06-07T15:23:13.444Z,32.80
2018-06-07T15:25:42.272Z,32.75
2018-06-07T15:28:11.101Z,32.99
2018-06-07T15:30:39.968Z,32.98
2018-06-07T15:33:08.737Z,32.82
2018-06-07T15:35:37.560Z,32.76
2018-06-07T15:38:06.579Z,32.60
2018-06-07T15:40:35.499Z,32.34
2018-06-07T15:43:04.404Z,32.25
2018-06-07T15:45:33.216Z,32.28
2018-06-07T15:48:02.217Z,32.22
2018-06-07T15:50:31.080Z,32.01
2018-06-07T15:53:00.041Z,31.95
2018-06-07T15:55:28.863Z,31.85
2018-06-07T15:57:57.667Z,31.32
2018-06-07T16:00:26.560Z,31.58
2018-06-07T16:02:56.629Z,31.09
2018-06-07T16:05:25.424Z,31.02
2018-06-07T16:07:54.418Z,30.77
2018-06-07T16:10:23.223Z,31.14
2018-06-07T16:12:52.261Z,31.22
2018-06-07T16:15:21.221Z,31.27
2018-06-07T16:17:50.596Z,31.39
2018-06-07T16:20:19.412Z,31.32
2018-06-07T16:22:48.184Z,31.21
2018-06-07T16:25:16.803Z,30.92
2018-06-07T16:27:45.781Z,30.61
2018-06-07T16:30:14.613Z,30.50
2018-06-07T16:32:43.552Z,30.44
2018-06-07T16:35:12.360Z,30.13
2018-06-07T16:37:41.065Z,29.70
2018-06-07T16:40:09.977Z,29.74
2018-06-07T16:42:38.972Z,29.56
2018-06-07T16:45:08.352Z,29.36
2018-06-07T16:47:37.107Z,29.01
2018-06-07T16:50:06.268Z,28.85
2018-06-07T16:52:35.086Z,28.50
2018-06-07T16:55:03.984Z,28.49
2018-06-07T16:57:32.932Z,28.19
2018-06-07T17:00:01.645Z,27.93
2018-06-07T17:02:30.591Z,27.95
2018-06-07T17:04:59.484Z,27.68
2018-06-07T17:07:28.474Z,27.84
2018-06-07T17:09:57.537Z,27.73
2018-06-07T17:12:26.321Z,27.86
2018-06-07T17:14:55.124Z,27.75
2018-06-07T17:17:23.991Z,27.52
2018-06-07T17:19:53.057Z,27.27
2018-06-07T17:22:21.721Z,26.93
2018-06-07T17:24:50.472Z,26.79
2018-06-07T17:27:19.473Z,26.68
2018-06-07T17:29:48.348Z,26.52
2018-06-07T17:32:17.608Z,26.54
2018-06-07T17:34:46.421Z,26.37
2018-06-07T17:37:15.244Z,26.42
2018-06-07T17:39:44.045Z,25.96
2018-06-07T17:42:13.028Z,25.87
2018-06-07T17:44:44.421Z,25.42
2018-06-07T17:47:14.625Z,25.07
2018-06-07T17:49:43.700Z,24.52
2018-06-07T17:52:12.593Z,24.39
2018-06-07T17:54:41.456Z,24.13
2018-06-07T17:57:10.555Z,23.94
2018-06-07T17:59:39.605Z,23.99
2018-06-07T18:02:08.743Z,24.01
2018-06-07T18:04:37.731Z,24.00
2018-06-07T18:07:06.616Z,24.11
2018-06-07T18:09:35.428Z,24.21
2018-06-07T18:12:04.495Z,24.25
2018-06-07T18:14:33.716Z,24.27
2018-06-07T18:17:03.092Z,23.92
2018-06-07T18:19:31.928Z,22.94
2018-06-07T18:22:00.984Z,22.64
2018-06-07T18:24:29.883Z,21.98
2018-06-07T18:26:58.704Z,21.62
2018-06-07T18:29:27.478Z,22.08
2018-06-07T18:31:57.197Z,22.34
2018-06-07T18:34:26.224Z,21.86
2018-06-07T18:36:55.271Z,21.90
2018-06-07T18:39:24.281Z,22.10
2018-06-07T18:41:53.025Z,22.27
2018-06-07T18:44:21.718Z,22.50
2018-06-07T18:46:50.452Z,22.53
2018-06-07T18:49:19.357Z,22.56
2018-06-07T18:51:48.220Z,22.49
2018-06-07T18:54:17.016Z,22.05
2018-06-07T18:56:45.879Z,22.16
2018-06-07T18:59:15.004Z,22.22
2018-06-07T19:01:43.852Z,22.15
2018-06-07T19:04:13.021Z,22.24
2018-06-07T19:06:42.096Z,22.35
2018-06-07T19:09:16.540Z,22.44
2018-06-07T19:11:45.363Z,22.45
2018-06-07T19:14:19.411Z,22.49
2018-06-07T19:16:48.366Z,22.54
2018-06-07T19:20:23.401Z,22.57
2018-06-07T19:22:52.068Z,22.54
2018-06-07T19:25:26.227Z,22.51
2018-06-07T19:27:55.081Z,22.54
2018-06-07T19:30:23.880Z,22.50
2018-06-07T19:32:57.937Z,22.50
2018-06-07T19:35:26.792Z,22.52
2018-06-07T19:37:55.701Z,22.49
2018-06-07T19:40:29.687Z,22.33
2018-06-07T19:42:58.560Z,22.29
2018-06-07T19:45:27.284Z,22.08
2018-06-07T19:47:56.188Z,21.69
2018-06-07T19:50:25.088Z,21.89
2018-06-07T19:52:53.927Z,21.59
2018-06-07T19:55:22.876Z,21.41
2018-06-07T19:57:51.520Z,21.33
2018-06-07T20:00:20.499Z,20.94
2018-06-07T20:02:49.205Z,20.88
2018-06-07T20:05:17.872Z,21.16
2018-06-07T20:07:47.535Z,21.42
2018-06-07T20:10:16.184Z,21.42
2018-06-07T20:12:46.384Z,21.49
2018-06-07T20:15:15.608Z,21.40
2018-06-07T20:17:44.679Z,21.44
2018-06-07T20:20:14.076Z,21.52
2018-06-07T20:22:42.957Z,21.64
2018-06-07T20:25:11.903Z,21.59
2018-06-07T20:27:40.762Z,21.63
2018-06-07T20:30:09.629Z,21.60
2018-06-07T20:32:38.598Z,21.50
2018-06-07T20:35:07.288Z,21.44
2018-06-07T20:37:37.207Z,21.35
2018-06-07T20:40:06.154Z,21.27
2018-06-07T20:42:34.962Z,21.30
2018-06-07T20:45:03.936Z,21.13
2018-06-07T20:47:32.866Z,21.19
2018-06-07T20:50:02.050Z,21.13
2018-06-07T20:52:31.076Z,21.16
2018-06-07T20:55:00.142Z,21.18
2018-06-07T20:57:28.962Z,21.26
2018-06-07T20:59:57.871Z,21.29
2018-06-07T21:02:26.708Z,21.38
2018-06-07T21:04:55.445Z,21.34
2018-06-07T21:07:24.237Z,21.29
2018-06-07T21:09:53.032Z,21.27
2018-06-07T21:12:21.899Z,21.23
2018-06-07T21:14:50.887Z,21.22
2018-06-07T21:17:19.696Z,20.98
2018-06-07T21:19:48.472Z,21.15
2018-06-07T21:22:17.392Z,21.16
2018-06-07T21:24:45.993Z,21.03
2018-06-07T21:27:15.047Z,20.77
2018-06-07T21:29:43.663Z,21.01
2018-06-07T21:32:12.311Z,21.06
2018-06-07T21:34:40.933Z,21.14
2018-06-07T21:37:09.540Z,21.11
2018-06-07T21:39:38.159Z,21.20
2018-06-07T21:42:06.781Z,21.22
2018-06-07T21:44:35.430Z,21.22
2018-06-07T21:47:04.050Z,21.19
2018-06-07T21:49:32.701Z,21.20
2018-06-07T21:52:01.503Z,21.14
2018-06-07T21:54:30.081Z,20.94
2018-06-07T21:56:58.760Z,21.11
2018-06-07T21:59:27.576Z,21.12
2018-06-07T22:01:56.152Z,21.13
2018-06-07T22:04:24.984Z,20.96
2018-06-07T22:06:53.811Z,20.85
2018-06-07T22:09:22.598Z,20.61
2018-06-07T22:11:51.528Z,20.77
2018-06-07T22:14:20.368Z,20.65
2018-06-07T22:16:49.216Z,20.63
2018-06-07T22:19:18.048Z,20.41
2018-06-07T22:21:46.938Z,20.48
2018-06-07T22:24:15.784Z,20.36
2018-06-07T22:26:44.700Z,20.41
2018-06-07T22:29:13.525Z,20.34
2018-06-07T22:31:42.715Z,20.25
2018-06-07T22:34:11.557Z,20.20
2018-06-07T22:36:40.415Z,20.04
2018-06-07T22:39:09.428Z,19.68
2018-06-07T22:41:38.120Z,19.64
2018-06-07T22:44:06.855Z,19.59
2018-06-07T22:46:35.556Z,19.46
2018-06-07T22:49:04.663Z,19.21
2018-06-07T22:51:33.527Z,19.42
2018-06-07T22:54:02.807Z,19.33
2018-06-07T22:56:31.528Z,19.18
2018-06-07T22:59:00.115Z,19.47
2018-06-07T23:01:29.344Z,19.65
2018-06-07T23:03:58.183Z,19.20
2018-06-07T23:06:27.140Z,18.83
2018-06-07T23:08:55.981Z,18.93
2018-06-07T23:11:24.749Z,19.07
2018-06-07T23:13:53.525Z,19.50
2018-06-07T23:16:22.124Z,19.13
2018-06-07T23:18:51.416Z,18.93
2018-06-07T23:21:20.261Z,18.85
2018-06-07T23:23:49.105Z,19.04
2018-06-07T23:26:17.727Z,18.98
2018-06-07T23:28:46.387Z,19.30
2018-06-07T23:31:15.160Z,19.16
2018-06-07T23:33:43.757Z,19.36
2018-06-07T23:36:12.336Z,19.32
2018-06-07T23:38:41.252Z,19.46
2018-06-07T23:41:10.016Z,19.34
2018-06-07T23:43:39.268Z,19.14
2018-06-07T23:46:08.057Z,19.24
2018-06-07T23:48:36.636Z,19.16
2018-06-07T23:51:05.280Z,19.34
2018-06-07T23:53:33.864Z,19.04
2018-06-07T23:56:02.633Z,18.85
2018-06-07T23:58:31.217Z,18.73
